Pagrindinis puslapis
METAR-TAF:

METAR-TAF

Oro uostai :

Hohenfels, Vokietija

platuma: 49-13N, ilguma: 011-50E, Aukštis: 442 m

Dabartinis oras

Ataskaita buvo paskelbta 41 minutes, ne 08:56 UTC
Ramus vėjas
Temperatūra 12°C
Drėgmė 71%
Slėgis 1029 hPa
Matomumas 10 km arba daugiau
Giedras dangus

METAR: ETIH 200856Z AUTO 00000KT 9999 CLR 12/07 A3040 RMK AO2 SLP305 T01160071 50004

Laikas: 11:37 (09:37 UTC)


TAF: trūkstamas

Orai ataskaitas ir orų prognozės (METAR, TAF).

turimą stotys yra geltonos ir raudonos taškus žemėlapyje.

Perkelti pele per norėdami pamatyti stoties vardą.

Tada spustelėkite, norėdami matyti oro stebėjimo ir prognozės.

Norėdami pakeisti žemėlapį: spustelėkite ant žalios mygtukų su juodo kryžiaus žemyn,; žalią mygtuką su brūkšneliu, jei norite nutolinti; arba žalių rodyklių gretimoms žemėlapius.


METAR-TAF: